Time;durP1;ratioP1;P1;durP2;ratioP2;P2;SDS_P1;SDS_P2;PMS_P1;PMS_P2;Temp;Humidity;BMP_temperature;BMP_pressure;BME280_temperature;BME280_humidity;BME280_pressure;Samples;Min_cycle;Max_cycle;Signal;HPM_P1;HPM_P2
2021/08/29 00:01:48;;;;;;;3.47;1.95;;;14.90;99.90;;;;;;5091102;28;20032;-50
2021/08/29 00:04:53;;;;;;;3.17;1.70;;;15.00;99.90;;;;;;5091616;28;20047;-50
2021/08/29 00:07:57;;;;;;;6.72;2.38;;;15.00;99.90;;;;;;5091634;28;20047;-51
2021/08/29 00:11:00;;;;;;;2.47;1.90;;;15.00;99.90;;;;;;5078887;28;20067;-53
2021/08/29 00:14:05;;;;;;;2.55;1.30;;;15.00;99.90;;;;;;5091593;28;20512;-53
2021/08/29 00:17:09;;;;;;;4.28;1.88;;;14.90;99.90;;;;;;5091637;28;20402;-50
2021/08/29 00:20:13;;;;;;;4.82;1.80;;;14.90;99.90;;;;;;5091546;28;20044;-51
2021/08/29 00:23:17;;;;;;;1.75;1.10;;;14.90;99.90;;;;;;5091173;28;20043;-55
2021/08/29 00:26:24;;;;;;;2.38;1.30;;;14.80;99.90;;;;;;5091221;28;20509;-50
2021/08/29 00:29:28;;;;;;;2.33;1.13;;;14.70;99.90;;;;;;5078942;28;20032;-50
2021/08/29 00:32:35;;;;;;;5.03;1.40;;;14.60;99.90;;;;;;5090818;28;20051;-50
2021/08/29 00:35:41;;;;;;;5.90;1.63;;;14.60;99.90;;;;;;5078446;28;20040;-53
2021/08/29 00:38:45;;;;;;;4.20;1.40;;;14.50;99.90;;;;;;5090123;28;20039;-51
2021/08/29 00:41:50;;;;;;;5.25;1.38;;;14.40;99.90;;;;;;5078222;28;20036;-54
2021/08/29 00:44:54;;;;;;;2.38;1.50;;;14.30;99.90;;;;;;5078664;28;20059;-51
2021/08/29 00:48:00;;;;;;;3.10;1.30;;;14.20;99.90;;;;;;5078414;28;20064;-50
2021/08/29 00:51:07;;;;;;;5.18;1.30;;;14.20;99.90;;;;;;5078299;28;20057;-53
2021/08/29 00:54:10;;;;;;;3.08;1.73;;;14.10;99.90;;;;;;5078008;28;20063;-50
2021/08/29 00:57:15;;;;;;;5.57;1.60;;;14.20;99.90;;;;;;5078125;28;20036;-58
2021/08/29 01:00:42;;;;;;;3.20;1.42;;;14.20;99.90;;;;;;5077831;28;20055;-50
2021/08/29 01:03:52;;;;;;;4.47;1.40;;;14.10;99.90;;;;;;5077549;28;20040;-50
2021/08/29 01:07:13;;;;;;;3.05;1.20;;;14.20;99.90;;;;;;5077725;28;20032;-51
2021/08/29 01:10:37;;;;;;;2.30;1.05;;;14.20;99.90;;;;;;5077758;28;20424;-52
2021/08/29 01:13:45;;;;;;;1.67;1.27;;;14.30;99.90;;;;;;5077433;28;20028;-54
2021/08/29 01:16:54;;;;;;;2.13;1.30;;;14.40;99.90;;;;;;5090289;28;20036;-53
2021/08/29 01:20:07;;;;;;;1.98;1.15;;;14.40;99.90;;;;;;5090204;28;20419;-51
2021/08/29 01:23:11;;;;;;;3.15;1.40;;;14.40;99.90;;;;;;5077112;28;20414;-51
2021/08/29 01:26:27;;;;;;;3.63;1.20;;;14.40;99.90;;;;;;5077717;28;20048;-50
2021/08/29 01:29:32;;;;;;;6.10;1.67;;;14.40;99.90;;;;;;5077643;28;20243;-54
2021/08/29 01:32:47;;;;;;;3.67;1.67;;;14.30;99.90;;;;;;5077142;28;20520;-51
2021/08/29 01:35:54;;;;;;;3.78;1.27;;;14.30;99.90;;;;;;5077778;28;20044;-55
2021/08/29 01:39:00;;;;;;;2.28;1.40;;;14.30;99.90;;;;;;5089876;28;20036;-53
2021/08/29 01:42:04;;;;;;;4.20;1.70;;;14.40;99.90;;;;;;5077536;28;20024;-52
2021/08/29 01:45:09;;;;;;;3.13;1.42;;;14.40;99.90;;;;;;5077572;28;20040;-50
2021/08/29 01:48:17;;;;;;;4.97;1.63;;;14.40;99.90;;;;;;5077156;28;20520;-52
2021/08/29 01:51:31;;;;;;;3.90;1.20;;;14.30;99.90;;;;;;5077204;28;20048;-50
2021/08/29 01:54:46;;;;;;;4.45;1.42;;;14.20;99.90;;;;;;5077599;28;20047;-51
2021/08/29 01:57:58;;;;;;;2.87;1.43;;;14.00;99.90;;;;;;5077407;28;20036;-53
2021/08/29 02:01:13;;;;;;;5.68;1.77;;;13.80;99.90;;;;;;5077276;28;20517;-52
2021/08/29 02:04:17;;;;;;;4.50;1.50;;;13.80;99.90;;;;;;5089654;28;20047;-50
2021/08/29 02:07:36;;;;;;;3.08;1.58;;;13.70;99.90;;;;;;5077003;28;20461;-52
2021/08/29 02:11:01;;;;;;;2.72;1.60;;;13.70;99.90;;;;;;5076871;28;20040;-51
2021/08/29 02:14:16;;;;;;;5.50;1.63;;;13.60;99.90;;;;;;5076704;28;20110;-50
2021/08/29 02:17:24;;;;;;;3.65;1.75;;;13.60;99.90;;;;;;5076021;28;20058;-51
2021/08/29 02:20:29;;;;;;;5.22;1.45;;;13.50;99.90;;;;;;5076575;28;20559;-50
2021/08/29 02:23:33;;;;;;;2.95;1.70;;;13.50;99.90;;;;;;5076543;28;20039;-50
2021/08/29 02:26:39;;;;;;;4.40;1.40;;;13.40;99.90;;;;;;5089395;28;20052;-51
2021/08/29 02:29:52;;;;;;;2.60;1.58;;;13.40;99.90;;;;;;5076871;28;20043;-50
2021/08/29 02:32:57;;;;;;;2.03;1.50;;;13.40;99.90;;;;;;5076729;28;20043;-50
2021/08/29 02:36:05;;;;;;;3.47;1.65;;;13.40;99.90;;;;;;5076767;28;20051;-52
2021/08/29 02:39:20;;;;;;;2.67;1.67;;;13.50;99.90;;;;;;5076661;28;20039;-50
2021/08/29 02:42:29;;;;;;;3.13;1.70;;;13.50;99.90;;;;;;5076498;28;20032;-52
2021/08/29 02:45:39;;;;;;;;;;;13.50;99.90;;;;;;5076990;28;20043;-51
2021/08/29 02:48:48;;;;;;;2.97;1.50;;;13.50;99.90;;;;;;5076617;28;19915;-51
2021/08/29 02:51:53;;;;;;;3.05;1.60;;;13.40;99.90;;;;;;5076271;28;20051;-51
2021/08/29 02:54:59;;;;;;;3.53;1.90;;;13.50;99.90;;;;;;5076286;28;20040;-51
2021/08/29 02:58:07;;;;;;;2.35;1.45;;;13.50;99.90;;;;;;5076549;28;20032;-51
2021/08/29 03:01:32;;;;;;;2.95;1.83;;;13.50;99.90;;;;;;5079699;28;20040;-50
2021/08/29 03:04:36;;;;;;;3.72;1.70;;;13.40;99.90;;;;;;5092255;28;20036;-51
2021/08/29 03:07:40;;;;;;;2.13;1.55;;;13.30;99.90;;;;;;5080257;28;20043;-50
2021/08/29 03:10:45;;;;;;;4.60;1.50;;;13.40;99.90;;;;;;5079976;28;20043;-53
2021/08/29 03:13:50;;;;;;;2.00;1.52;;;13.50;99.90;;;;;;5079625;28;20043;-53
2021/08/29 03:16:56;;;;;;;8.15;2.38;;;13.50;99.90;;;;;;5079979;28;20064;-52
2021/08/29 03:20:20;;;;;;;10.27;1.80;;;13.60;99.90;;;;;;5079730;28;20048;-53
2021/08/29 03:23:27;;;;;;;3.97;1.75;;;13.60;99.90;;;;;;5080044;28;20069;-50
2021/08/29 03:26:32;;;;;;;3.60;1.67;;;13.70;99.90;;;;;;5079799;28;20402;-49
2021/08/29 03:29:46;;;;;;;3.50;1.70;;;13.70;99.90;;;;;;5079720;28;20414;-52
2021/08/29 03:32:52;;;;;;;3.92;1.85;;;13.70;99.90;;;;;;5079549;28;20043;-52
2021/08/29 03:36:08;;;;;;;3.28;1.65;;;13.70;99.90;;;;;;5079336;28;20414;-52
2021/08/29 03:39:15;;;;;;;2.65;1.60;;;13.70;99.90;;;;;;5079660;28;20043;-53
2021/08/29 03:42:22;;;;;;;4.38;1.73;;;13.60;99.90;;;;;;5079480;28;20032;-51
2021/08/29 03:45:33;;;;;;;4.35;1.95;;;13.50;99.90;;;;;;5079269;28;20040;-50
2021/08/29 03:48:37;;;;;;;2.60;1.67;;;13.50;99.90;;;;;;5079130;28;20035;-53
2021/08/29 03:51:42;;;;;;;4.63;1.83;;;13.50;99.90;;;;;;5079260;28;20036;-52
2021/08/29 03:54:47;;;;;;;3.55;1.70;;;13.40;99.90;;;;;;5078914;28;20051;-50
2021/08/29 03:57:53;;;;;;;2.88;1.75;;;13.40;99.90;;;;;;5079808;28;20062;-55
2021/08/29 04:00:59;;;;;;;2.38;1.80;;;13.40;99.90;;;;;;5079326;28;20047;-50
2021/08/29 04:04:03;;;;;;;4.30;1.73;;;13.30;99.90;;;;;;5079257;28;20051;-50
2021/08/29 04:07:10;;;;;;;4.40;1.42;;;13.40;99.90;;;;;;5091865;28;20414;-50
2021/08/29 04:10:28;;;;;;;2.08;1.58;;;13.40;99.90;;;;;;5079192;28;20126;-51
2021/08/29 04:13:32;;;;;;;5.88;2.00;;;13.40;99.90;;;;;;5079198;28;20038;-51
2021/08/29 04:16:39;;;;;;;2.22;1.52;;;13.40;99.90;;;;;;5091465;28;20047;-50
2021/08/29 04:20:19;;;;;;;3.33;1.73;;;13.40;99.90;;;;;;5091247;28;20051;-51
2021/08/29 04:23:23;;;;;;;3.47;1.50;;;13.40;99.90;;;;;;5078689;28;20043;-50
2021/08/29 04:26:27;;;;;;;3.92;1.67;;;13.40;99.90;;;;;;5078424;28;20047;-52
2021/08/29 04:29:32;;;;;;;3.38;1.77;;;13.30;99.90;;;;;;5091044;28;20603;-52
2021/08/29 04:32:38;;;;;;;3.42;1.73;;;13.30;99.90;;;;;;5077812;28;20047;-50
2021/08/29 04:35:45;;;;;;;6.53;1.80;;;13.20;99.90;;;;;;5078311;28;20522;-51
2021/08/29 04:38:50;;;;;;;2.85;1.70;;;13.20;99.90;;;;;;5078822;28;20067;-55
2021/08/29 04:41:55;;;;;;;3.80;1.90;;;13.10;99.90;;;;;;5078543;28;20505;-50
2021/08/29 04:44:59;;;;;;;4.75;1.77;;;13.10;99.90;;;;;;5077731;28;20059;-51
2021/08/29 04:48:04;;;;;;;4.40;1.98;;;13.10;99.90;;;;;;5078463;28;20049;-50
2021/08/29 04:51:08;;;;;;;4.05;1.77;;;13.10;99.90;;;;;;5077942;28;20040;-53
2021/08/29 04:54:13;;;;;;;5.60;1.83;;;13.00;99.90;;;;;;5077937;28;20039;-51
2021/08/29 04:57:18;;;;;;;3.33;1.70;;;13.10;99.90;;;;;;5078039;28;20040;-53
2021/08/29 05:00:26;;;;;;;4.53;1.63;;;13.10;99.90;;;;;;5078012;28;20039;-54
2021/08/29 05:03:36;;;;;;;2.22;1.55;;;13.10;99.90;;;;;;5077824;28;20036;-50
2021/08/29 05:06:41;;;;;;;3.38;1.60;;;13.20;99.90;;;;;;5077664;28;20047;-50
2021/08/29 05:09:49;;;;;;;2.17;1.50;;;13.30;99.90;;;;;;5077683;28;20036;-51
2021/08/29 05:12:53;;;;;;;2.22;1.60;;;13.40;99.90;;;;;;5077494;28;20036;-51
2021/08/29 05:15:57;;;;;;;3.13;1.50;;;13.40;99.90;;;;;;5077402;28;20042;-50
2021/08/29 05:19:02;;;;;;;5.78;1.50;;;13.40;99.90;;;;;;5077745;28;20045;-52
2021/08/29 05:22:06;;;;;;;2.55;1.50;;;13.50;99.90;;;;;;5077391;28;20061;-51
2021/08/29 05:25:30;;;;;;;3.05;1.60;;;13.50;99.90;;;;;;5089777;28;20036;-53
2021/08/29 05:28:34;;;;;;;2.95;1.52;;;15.20;99.90;;;;;;5090063;28;20032;-50
2021/08/29 05:31:39;;;;;;;5.22;1.50;;;18.10;99.90;;;;;;5077193;28;20406;-50
2021/08/29 05:34:45;;;;;;;4.30;1.70;;;19.90;99.90;;;;;;5077661;28;20047;-53
2021/08/29 05:37:52;;;;;;;3.60;1.60;;;20.90;99.90;;;;;;5077114;28;20035;-51
2021/08/29 05:41:22;;;;;;;3.00;1.00;;;22.60;99.90;;;;;;5089195;28;20513;-51
2021/08/29 05:44:29;;;;;;;3.78;1.52;;;24.10;98.30;;;;;;5090123;28;20032;-51
2021/08/29 05:47:34;;;;;;;5.18;1.40;;;24.80;95.50;;;;;;5089711;28;20039;-52
2021/08/29 05:50:38;;;;;;;2.08;1.17;;;26.10;94.80;;;;;;5089953;28;20062;-53
2021/08/29 05:53:42;;;;;;;2.22;1.10;;;25.70;92.00;;;;;;5077231;28;20386;-53
2021/08/29 05:56:46;;;;;;;2.30;1.30;;;23.40;95.40;;;;;;5077271;28;20145;-51
2021/08/29 05:59:51;;;;;;;1.73;1.00;;;24.50;94.40;;;;;;5077307;28;20207;-51
2021/08/29 06:02:55;;;;;;;2.50;1.15;;;24.70;93.30;;;;;;5090060;28;20062;-51
2021/08/29 06:05:59;;;;;;;5.68;1.40;;;25.20;93.10;;;;;;5089459;28;20528;-51
2021/08/29 06:09:12;;;;;;;1.40;1.00;;;25.50;92.70;;;;;;5077354;28;20048;-51
2021/08/29 06:12:16;;;;;;;3.58;1.38;;;26.00;92.70;;;;;;5077085;28;20043;-51
2021/08/29 06:15:21;;;;;;;3.63;1.10;;;26.00;92.00;;;;;;5089969;28;20063;-52
2021/08/29 06:18:25;;;;;;;3.58;1.30;;;27.20;91.20;;;;;;5077066;28;20055;-53
2021/08/29 06:21:29;;;;;;;4.45;3.50;;;28.50;88.00;;;;;;5077004;28;20054;-58
2021/08/29 06:24:34;;;;;;;8.23;4.38;;;29.10;86.10;;;;;;5077308;28;20310;-52
2021/08/29 06:27:57;;;;;;;3.33;1.80;;;30.10;83.70;;;;;;5089480;28;20032;-55
2021/08/29 06:31:20;;;;;;;1.77;1.25;;;31.10;80.60;;;;;;5088841;28;20036;-54
2021/08/29 06:34:47;;;;;;;4.78;1.30;;;31.40;78.40;;;;;;5080402;28;20033;-52
2021/08/29 06:37:59;;;;;;;2.20;1.20;;;31.70;76.80;;;;;;5080435;28;20516;-55
2021/08/29 06:41:03;;;;;;;11.45;7.95;;;31.60;76.20;;;;;;5080412;28;20044;-52
2021/08/29 06:44:08;;;;;;;34.20;23.05;;;31.80;74.70;;;;;;5080660;28;20039;-52
2021/08/29 06:47:35;;;;;;;3.95;2.53;;;32.20;73.70;;;;;;5083785;28;20043;-51
2021/08/29 06:50:57;;;;;;;3.70;1.27;;;32.10;74.60;;;;;;5083123;28;20426;-51
2021/08/29 06:54:20;;;;;;;2.45;0.82;;;31.50;74.30;;;;;;5092740;28;20048;-53
2021/08/29 06:58:00;;;;;;;2.70;1.23;;;31.20;74.10;;;;;;5014063;28;20037;-52
2021/08/29 07:01:05;;;;;;;2.17;1.20;;;30.70;75.80;;;;;;5080392;28;20044;-51
2021/08/29 07:04:09;;;;;;;2.67;1.10;;;31.20;74.30;;;;;;5080657;28;20459;-51
2021/08/29 07:07:14;;;;;;;1.38;1.15;;;31.60;74.30;;;;;;5092901;28;20036;-51
2021/08/29 07:10:37;;;;;;;1.35;1.00;;;31.80;73.10;;;;;;5092975;28;20043;-52
2021/08/29 07:14:10;;;;;;;3.83;1.10;;;31.50;72.80;;;;;;5081007;28;20510;-53
2021/08/29 07:17:16;;;;;;;1.33;0.85;;;31.60;73.80;;;;;;5079762;28;20510;-50
2021/08/29 07:20:21;;;;;;;3.00;1.10;;;31.80;73.30;;;;;;5080033;28;20048;-51
2021/08/29 07:23:52;;;;;;;3.63;1.10;;;32.40;72.60;;;;;;5087122;28;20043;-51
2021/08/29 07:27:16;;;;;;;3.10;1.10;;;30.80;72.20;;;;;;5092019;28;20042;-51
2021/08/29 07:30:45;;;;;;;3.92;1.05;;;27.10;79.00;;;;;;5079700;28;20036;-56
2021/08/29 07:33:55;;;;;;;2.83;1.48;;;24.60;84.50;;;;;;5079490;28;20036;-50
2021/08/29 07:37:22;;;;;;;2.17;1.10;;;25.50;86.30;;;;;;5092177;28;20053;-50
2021/08/29 07:40:26;;;;;;;12.07;2.22;;;25.90;85.90;;;;;;5080006;28;20062;-51
2021/08/29 07:43:31;;;;;;;2.65;1.20;;;29.00;81.20;;;;;;5092384;28;20052;-51
2021/08/29 07:46:39;;;;;;;2.30;1.08;;;30.40;77.90;;;;;;5079316;28;20560;-51
2021/08/29 07:49:43;;;;;;;1.38;0.80;;;31.80;75.40;;;;;;5092231;28;20036;-51
2021/08/29 07:52:49;;;;;;;3.00;1.10;;;33.00;73.30;;;;;;5079305;28;20044;-51
2021/08/29 07:56:22;;;;;;;2.67;0.85;;;34.00;71.00;;;;;;5052613;28;20051;-53
2021/08/29 07:59:26;;;;;;;5.60;0.93;;;34.90;70.30;;;;;;5078947;28;20137;-52
2021/08/29 08:02:30;;;;;;;2.47;0.82;;;35.90;68.50;;;;;;5078888;28;20039;-54
2021/08/29 08:05:54;;;;;;;2.63;0.80;;;35.70;66.50;;;;;;5091390;28;20047;-52
2021/08/29 08:09:27;;;;;;;2.00;0.93;;;36.10;65.90;;;;;;5091226;28;20051;-53
2021/08/29 08:12:50;;;;;;;2.85;0.80;;;36.40;64.80;;;;;;5091174;28;20024;-52
2021/08/29 08:15:53;;;;;;;3.20;1.25;;;36.50;63.50;;;;;;5078940;28;20047;-50
2021/08/29 08:19:00;;;;;;;2.38;1.00;;;37.30;62.70;;;;;;5090820;28;20050;-53
2021/08/29 08:22:04;;;;;;;2.95;0.80;;;38.30;61.50;;;;;;5078472;28;20043;-51
2021/08/29 08:25:18;;;;;;;1.63;0.77;;;38.60;60.30;;;;;;5078884;28;20047;-53
2021/08/29 08:28:41;;;;;;;1.20;0.80;;;38.80;60.10;;;;;;5090979;28;20028;-51
2021/08/29 08:32:05;;;;;;;1.95;0.73;;;39.20;58.30;;;;;;5090935;28;20051;-50
2021/08/29 08:35:27;;;;;;;1.75;0.68;;;39.00;57.30;;;;;;5091346;28;20051;-53
2021/08/29 08:38:51;;;;;;;1.40;0.57;;;39.10;57.40;;;;;;5078217;28;20039;-56
2021/08/29 08:42:22;;;;;;;1.52;0.60;;;39.40;55.30;;;;;;5077956;28;20036;-53
2021/08/29 08:45:47;;;;;;;0.90;0.63;;;39.50;55.60;;;;;;5090870;28;20422;-51
2021/08/29 08:49:10;;;;;;;0.77;0.60;;;39.00;53.90;;;;;;5090407;28;20039;-52
2021/08/29 08:52:55;;;;;;;2.22;0.73;;;40.10;54.50;;;;;;5027792;28;20052;-52
2021/08/29 08:56:20;;;;;;;0.77;0.60;;;38.20;51.90;;;;;;5035704;28;20400;-51
2021/08/29 08:59:32;;;;;;;0.70;0.57;;;38.80;53.30;;;;;;5089907;28;20446;-54
2021/08/29 09:02:56;;;;;;;1.20;0.50;;;39.80;51.40;;;;;;5090500;28;20036;-56
2021/08/29 09:06:14;;;;;;;0.80;0.55;;;39.60;52.60;;;;;;5077965;28;20110;-52
2021/08/29 09:09:18;;;;;;;0.80;0.50;;;40.60;51.70;;;;;;5077654;28;20043;-52
2021/08/29 09:12:25;;;;;;;0.93;0.30;;;41.20;50.60;;;;;;5077486;28;20059;-51
2021/08/29 09:15:30;;;;;;;0.98;0.70;;;41.70;50.30;;;;;;5077673;28;20068;-51
2021/08/29 09:18:48;;;;;;;0.40;0.40;;;41.50;48.90;;;;;;5077420;28;20488;-53
2021/08/29 09:21:57;;;;;;;0.93;0.55;;;41.10;50.10;;;;;;5089930;28;20043;-52
2021/08/29 09:25:04;;;;;;;0.52;0.40;;;41.50;48.50;;;;;;5077619;28;20040;-56
2021/08/29 09:28:17;;;;;;;2.20;0.40;;;41.90;48.40;;;;;;5077438;28;20043;-52
2021/08/29 09:31:46;;;;;;;1.30;0.40;;;41.40;48.50;;;;;;5077286;28;20054;-53
2021/08/29 09:34:58;;;;;;;0.73;0.40;;;41.90;48.30;;;;;;5077610;28;20047;-51
2021/08/29 09:38:16;;;;;;;0.98;0.50;;;43.30;47.50;;;;;;5077257;28;20047;-51
2021/08/29 09:41:41;;;;;;;0.90;0.50;;;43.70;46.30;;;;;;5089825;28;20036;-51
2021/08/29 09:45:08;;;;;;;2.92;2.63;;;43.50;47.50;;;;;;5066529;28;20051;-51
2021/08/29 09:48:31;;;;;;;0.57;0.40;;;43.90;46.50;;;;;;5090065;28;20032;-51
2021/08/29 09:51:47;;;;;;;1.75;0.70;;;42.40;46.20;;;;;;5077222;28;20043;-51
2021/08/29 09:55:12;;;;;;;2.55;0.60;;;41.30;47.40;;;;;;5077207;28;20043;-51
2021/08/29 09:58:34;;;;;;;2.85;0.50;;;43.10;45.90;;;;;;5089500;28;20071;-55
2021/08/29 10:02:02;;;;;;;0.65;0.40;;;43.10;45.40;;;;;;5077071;28;20044;-54
2021/08/29 10:05:19;;;;;;;0.50;0.30;;;42.90;45.20;;;;;;5077442;28;20695;-52
2021/08/29 10:08:41;;;;;;;2.25;0.50;;;43.80;45.80;;;;;;5077303;28;20035;-52
2021/08/29 10:11:56;;;;;;;0.50;0.40;;;41.70;45.70;;;;;;5081404;28;20032;-51
2021/08/29 10:15:01;;;;;;;0.50;0.32;;;42.00;46.10;;;;;;5093892;28;20040;-52
2021/08/29 10:18:37;;;;;;;0.70;0.50;;;43.00;46.10;;;;;;5054655;28;20226;-52
2021/08/29 10:22:01;;;;;;;0.20;0.20;;;44.10;44.80;;;;;;5093871;28;20047;-53
2021/08/29 10:25:09;;;;;;;0.43;0.40;;;42.50;44.90;;;;;;5081426;28;20040;-51
2021/08/29 10:28:14;;;;;;;0.60;0.43;;;40.70;45.70;;;;;;5081296;28;20055;-52
2021/08/29 10:31:29;;;;;;;0.75;0.50;;;38.30;48.00;;;;;;5080553;28;20040;-50
2021/08/29 10:34:50;;;;;;;0.60;0.40;;;37.80;48.80;;;;;;5080810;28;20048;-51
2021/08/29 10:37:55;;;;;;;1.13;0.45;;;37.20;48.60;;;;;;5080699;28;20032;-52
2021/08/29 10:41:22;;;;;;;1.00;0.40;;;38.30;48.90;;;;;;5083183;28;20048;-52
2021/08/29 10:44:28;;;;;;;1.45;0.52;;;39.40;47.70;;;;;;5080676;28;20036;-51
2021/08/29 10:48:07;;;;;;;0.40;0.40;;;38.30;47.90;;;;;;5086926;28;20032;-51
2021/08/29 10:51:36;;;;;;;1.30;0.60;;;38.40;47.70;;;;;;5080027;28;20040;-52
2021/08/29 10:55:09;;;;;;;0.90;0.40;;;40.90;46.50;;;;;;5080554;28;20052;-51
2021/08/29 10:58:20;;;;;;;1.52;0.60;;;41.70;46.00;;;;;;5080467;28;20043;-54
2021/08/29 11:01:38;;;;;;;1.85;0.55;;;39.30;47.30;;;;;;5080217;28;20040;-52
2021/08/29 11:04:57;;;;;;;1.17;0.68;;;39.20;47.30;;;;;;5080606;28;20402;-52
2021/08/29 11:08:28;;;;;;;2.25;0.55;;;38.80;46.10;;;;;;5080043;28;20337;-51
2021/08/29 11:11:48;;;;;;;0.65;0.40;;;39.50;46.30;;;;;;5079817;28;20039;-53
2021/08/29 11:14:56;;;;;;;1.60;0.38;;;41.60;45.50;;;;;;5079810;28;20059;-51
2021/08/29 11:18:02;;;;;;;0.60;0.30;;;42.70;45.00;;;;;;5079773;28;20047;-52
2021/08/29 11:21:20;;;;;;;0.75;0.40;;;44.10;44.40;;;;;;5091270;28;20537;-52
2021/08/29 11:25:11;;;;;;;0.68;0.40;;;43.50;43.90;;;;;;5016130;28;20040;-51
2021/08/29 11:28:30;;;;;;;2.30;0.40;;;41.70;44.10;;;;;;5004605;28;20447;-53
2021/08/29 11:31:54;;;;;;;0.68;0.50;;;38.90;46.40;;;;;;5091958;28;20414;-51
2021/08/29 11:35:23;;;;;;;1.10;0.40;;;39.10;46.60;;;;;;5080015;28;20067;-52
2021/08/29 11:38:45;;;;;;;0.50;0.30;;;41.00;45.20;;;;;;5079499;28;20039;-51
2021/08/29 11:42:10;;;;;;;2.67;0.40;;;40.50;44.70;;;;;;5079099;28;20116;-51
2021/08/29 11:45:22;;;;;;;0.90;0.52;;;38.90;45.40;;;;;;5079369;28;20049;-53
2021/08/29 11:48:30;;;;;;;2.17;0.30;;;36.60;47.50;;;;;;5079293;28;20390;-50
2021/08/29 11:51:38;;;;;;;0.52;0.50;;;35.20;48.40;;;;;;5078834;28;20043;-51
2021/08/29 11:54:47;;;;;;;0.60;0.50;;;36.30;48.40;;;;;;5079441;28;20047;-51
2021/08/29 11:57:53;;;;;;;0.70;0.38;;;38.40;47.30;;;;;;5079054;28;20040;-51
2021/08/29 12:01:03;;;;;;;0.38;0.30;;;40.80;45.90;;;;;;5078813;28;20036;-51
2021/08/29 12:04:09;;;;;;;0.40;0.30;;;40.70;44.70;;;;;;5079288;28;20040;-51
2021/08/29 12:07:47;;;;;;;1.17;0.40;;;41.10;45.00;;;;;;5085343;28;20402;-52
2021/08/29 12:11:11;;;;;;;1.08;0.30;;;41.20;45.10;;;;;;5090995;28;20505;-53
2021/08/29 12:14:38;;;;;;;0.82;0.32;;;41.90;44.30;;;;;;5091142;28;20044;-54
2021/08/29 12:18:02;;;;;;;1.90;0.80;;;42.30;43.20;;;;;;5091335;28;20052;-52
2021/08/29 12:21:10;;;;;;;0.40;0.32;;;41.50;44.40;;;;;;5078323;28;20406;-53
2021/08/29 12:24:40;;;;;;;0.60;0.30;;;42.70;43.70;;;;;;5082123;28;20043;-51
2021/08/29 12:27:46;;;;;;;0.65;0.40;;;39.80;43.20;;;;;;5078675;28;20072;-53
2021/08/29 12:30:55;;;;;;;0.50;0.30;;;41.30;43.50;;;;;;5053533;28;20051;-53
2021/08/29 12:34:01;;;;;;;0.82;0.40;;;42.50;43.10;;;;;;5057424;28;20042;-53
2021/08/29 12:37:11;;;;;;;0.75;0.30;;;43.40;42.50;;;;;;5058246;28;20517;-56
2021/08/29 12:40:17;;;;;;;0.47;0.30;;;44.60;42.00;;;;;;5048038;28;20036;-51
2021/08/29 12:43:27;;;;;;;0.50;0.35;;;45.30;41.20;;;;;;5027239;28;20047;-51
2021/08/29 12:46:40;;;;;;;0.75;0.40;;;45.00;41.20;;;;;;5055513;28;20056;-53
2021/08/29 12:49:45;;;;;;;0.63;0.40;;;45.60;40.40;;;;;;5068497;28;20040;-53
2021/08/29 12:52:53;;;;;;;1.90;0.40;;;45.80;40.60;;;;;;5065760;28;20037;-54
2021/08/29 12:55:58;;;;;;;0.60;0.33;;;46.10;40.30;;;;;;5067237;28;20136;-55
2021/08/29 12:59:04;;;;;;;0.85;0.40;;;46.50;40.00;;;;;;5054101;28;20040;-52
2021/08/29 13:02:15;;;;;;;0.98;0.40;;;45.80;40.50;;;;;;5068703;28;20044;-51
2021/08/29 13:05:19;;;;;;;0.60;0.40;;;45.10;41.40;;;;;;5059706;28;20040;-53
2021/08/29 13:08:42;;;;;;;1.10;0.30;;;44.90;41.70;;;;;;5060801;28;20059;-55
2021/08/29 13:11:46;;;;;;;1.15;0.45;;;44.50;41.30;;;;;;5052117;28;20067;-51
2021/08/29 13:14:50;;;;;;;0.95;0.40;;;44.30;40.40;;;;;;5066443;28;20687;-54
2021/08/29 13:17:54;;;;;;;0.60;0.40;;;44.70;40.60;;;;;;5067698;28;20360;-51
2021/08/29 13:20:58;;;;;;;0.80;0.30;;;44.30;41.00;;;;;;5053259;28;20033;-54
2021/08/29 13:24:29;;;;;;;0.50;0.30;;;43.40;40.10;;;;;;5068240;28;20060;-53
2021/08/29 13:27:34;;;;;;;8.52;1.02;;;42.70;40.10;;;;;;5068748;28;20417;-53
2021/08/29 13:30:38;;;;;;;0.80;0.50;;;41.60;40.30;;;;;;5067839;28;20037;-51
2021/08/29 13:33:42;;;;;;;3.17;0.70;;;41.10;40.30;;;;;;5068233;28;20041;-55
2021/08/29 13:36:48;;;;;;;0.52;0.40;;;39.90;40.70;;;;;;5056179;28;20039;-55
2021/08/29 13:39:53;;;;;;;1.63;0.43;;;38.80;41.70;;;;;;5066360;28;20043;-52
2021/08/29 13:43:02;;;;;;;0.43;0.32;;;39.40;42.10;;;;;;5067498;28;20403;-54
2021/08/29 13:46:12;;;;;;;8.27;1.58;;;38.60;42.20;;;;;;5068312;28;20048;-52
2021/08/29 13:49:16;;;;;;;2.05;0.50;;;38.00;43.80;;;;;;5043521;28;20063;-57
2021/08/29 13:52:23;;;;;;;1.60;0.60;;;37.40;44.30;;;;;;5054082;28;20048;-55
2021/08/29 13:55:32;;;;;;;1.33;0.52;;;35.30;44.40;;;;;;5066093;28;20072;-52
2021/08/29 13:58:36;;;;;;;1.20;0.40;;;33.30;46.70;;;;;;5067419;28;20051;-53
2021/08/29 14:01:40;;;;;;;0.98;0.38;;;32.00;48.00;;;;;;5066075;28;20055;-55
2021/08/29 14:04:46;;;;;;;2.67;0.60;;;31.30;48.80;;;;;;5067480;28;20043;-52
2021/08/29 14:07:51;;;;;;;2.75;0.73;;;30.90;48.90;;;;;;5053332;28;20037;-52
2021/08/29 14:10:57;;;;;;;2.72;0.60;;;30.70;49.30;;;;;;5064899;28;20036;-50
2021/08/29 14:14:03;;;;;;;1.17;0.73;;;30.30;49.70;;;;;;5066453;28;20040;-52
2021/08/29 14:17:08;;;;;;;14.60;1.65;;;30.20;50.30;;;;;;5067796;28;20711;-52
2021/08/29 14:20:14;;;;;;;2.10;0.50;;;30.40;50.40;;;;;;5066255;28;20036;-53
2021/08/29 14:23:18;;;;;;;1.30;0.57;;;30.20;50.30;;;;;;5066843;28;20028;-53
2021/08/29 14:26:23;;;;;;;1.95;0.40;;;30.00;50.60;;;;;;5044863;28;20037;-51
2021/08/29 14:29:27;;;;;;;2.47;0.60;;;29.70;51.20;;;;;;5056064;28;20415;-53
2021/08/29 14:32:31;;;;;;;0.88;0.60;;;29.80;51.90;;;;;;5063000;28;20021;-52
2021/08/29 14:35:35;;;;;;;1.30;0.50;;;29.70;51.60;;;;;;5056590;28;20406;-50
2021/08/29 14:38:40;;;;;;;1.70;0.70;;;29.60;51.90;;;;;;5068695;28;20056;-56
2021/08/29 14:41:45;;;;;;;2.60;0.45;;;29.60;52.70;;;;;;5068575;28;20028;-54
2021/08/29 14:44:49;;;;;;;0.98;0.60;;;29.80;51.90;;;;;;5069020;28;20033;-53
2021/08/29 14:47:53;;;;;;;1.52;0.60;;;29.90;52.10;;;;;;5068796;28;20059;-53
2021/08/29 14:50:58;;;;;;;0.90;0.50;;;30.00;51.70;;;;;;5068038;28;20059;-54
2021/08/29 14:54:03;;;;;;;0.93;0.60;;;30.10;51.70;;;;;;5078508;28;20047;-52
2021/08/29 14:57:07;;;;;;;0.50;0.40;;;30.10;51.30;;;;;;5061327;28;20049;-51
2021/08/29 15:00:13;;;;;;;2.35;0.50;;;30.10;51.70;;;;;;5072617;28;20052;-52
2021/08/29 15:03:18;;;;;;;5.25;0.50;;;30.20;51.50;;;;;;5072127;28;20024;-52
2021/08/29 15:06:22;;;;;;;0.60;0.45;;;30.00;51.20;;;;;;5073384;28;20033;-53
2021/08/29 15:09:28;;;;;;;2.47;0.55;;;30.00;51.60;;;;;;5072631;28;20512;-52
2021/08/29 15:12:32;;;;;;;1.88;0.60;;;29.90;51.60;;;;;;5072182;28;20501;-51
2021/08/29 15:15:36;;;;;;;1.25;0.50;;;29.80;51.80;;;;;;5070044;28;20041;-55
2021/08/29 15:18:41;;;;;;;1.92;0.80;;;29.40;51.90;;;;;;5070643;28;20047;-51
2021/08/29 15:21:45;;;;;;;2.67;0.60;;;29.10;51.90;;;;;;5070850;28;20504;-56
2021/08/29 15:24:49;;;;;;;1.52;0.70;;;28.70;52.80;;;;;;5072549;28;20036;-55
2021/08/29 15:27:52;;;;;;;0.73;0.40;;;28.60;53.20;;;;;;5072945;28;20406;-56
2021/08/29 15:30:58;;;;;;;0.75;0.50;;;28.50;53.20;;;;;;5072096;28;20040;-52
2021/08/29 15:34:03;;;;;;;0.93;0.60;;;28.40;53.00;;;;;;5071987;28;20044;-54
2021/08/29 15:37:08;;;;;;;1.10;0.60;;;28.30;52.70;;;;;;5072087;28;20421;-51
2021/08/29 15:40:12;;;;;;;2.78;0.60;;;28.10;53.50;;;;;;5071958;28;20040;-51
2021/08/29 15:43:18;;;;;;;4.57;0.70;;;27.90;53.20;;;;;;5051789;28;20399;-51
2021/08/29 15:46:29;;;;;;;1.65;0.52;;;27.70;53.80;;;;;;5060255;28;20033;-53
2021/08/29 15:49:35;;;;;;;1.67;0.40;;;27.70;53.80;;;;;;5072095;28;20052;-52
2021/08/29 15:52:41;;;;;;;0.70;0.50;;;27.70;53.70;;;;;;5059086;28;20043;-51
2021/08/29 15:55:45;;;;;;;0.65;0.43;;;27.60;54.30;;;;;;5070099;28;20040;-52
2021/08/29 15:58:51;;;;;;;0.85;0.60;;;27.60;54.00;;;;;;5068138;28;20031;-51
2021/08/29 16:01:56;;;;;;;0.68;0.60;;;27.60;53.80;;;;;;5049837;28;20033;-55
2021/08/29 16:05:00;;;;;;;0.90;0.57;;;27.60;53.90;;;;;;5050939;28;20045;-53
2021/08/29 16:08:04;;;;;;;1.52;0.90;;;27.50;54.10;;;;;;5050899;28;20048;-51
2021/08/29 16:11:09;;;;;;;1.08;0.68;;;27.30;53.90;;;;;;5038966;28;20052;-52
2021/08/29 16:14:13;;;;;;;3.00;0.65;;;27.30;53.60;;;;;;5050571;28;20054;-52
2021/08/29 16:17:18;;;;;;;1.38;0.50;;;27.30;54.50;;;;;;5051026;28;20067;-52
2021/08/29 16:20:23;;;;;;;1.15;0.63;;;27.20;54.40;;;;;;5050949;28;20033;-52
2021/08/29 16:23:27;;;;;;;0.95;0.52;;;27.00;55.30;;;;;;5050957;28;20594;-51
2021/08/29 16:26:31;;;;;;;0.68;0.52;;;27.00;55.10;;;;;;5051139;28;20037;-53
2021/08/29 16:29:37;;;;;;;1.00;0.52;;;26.90;55.40;;;;;;5051012;28;20040;-52
2021/08/29 16:32:41;;;;;;;1.00;0.60;;;26.80;55.20;;;;;;5050689;28;20255;-51
2021/08/29 16:35:47;;;;;;;1.02;0.50;;;26.70;55.00;;;;;;5050366;28;20057;-52